createdAt,value
2022-08-22T00:00:17.295Z,21.75
2022-08-22T00:03:04.651Z,24.68
2022-08-22T00:03:52.688Z,21.68
2022-08-22T00:06:29.868Z,21.70
2022-08-22T00:09:06.476Z,21.66
2022-08-22T00:11:58.379Z,21.58
2022-08-22T00:15:00.560Z,21.44
2022-08-22T00:17:53.492Z,21.37
2022-08-22T00:20:43.781Z,21.35
2022-08-22T00:23:35.788Z,21.28
2022-08-22T00:26:10.317Z,21.22
2022-08-22T00:29:03.510Z,21.25
2022-08-22T00:32:10.292Z,21.19
2022-08-22T00:35:03.624Z,21.19
2022-08-22T00:37:47.690Z,21.18
2022-08-22T00:41:12.046Z,21.23
2022-08-22T00:44:05.049Z,21.22
2022-08-22T00:46:40.311Z,21.21
2022-08-22T00:49:51.721Z,21.20
2022-08-22T00:53:01.997Z,21.17
2022-08-22T00:56:09.766Z,21.13
2022-08-22T00:59:00.186Z,21.08
2022-08-22T01:02:24.317Z,21.00
2022-08-22T01:05:25.177Z,20.98
2022-08-22T01:08:19.451Z,21.01
2022-08-22T01:11:04.850Z,20.99
2022-08-22T01:13:50.860Z,20.94
2022-08-22T01:16:44.460Z,20.95
2022-08-22T01:19:34.320Z,20.92
2022-08-22T01:22:35.775Z,20.86
2022-08-22T01:25:28.275Z,20.76
2022-08-22T01:28:29.962Z,20.66
2022-08-22T01:31:37.715Z,20.57
2022-08-22T01:34:28.023Z,20.53
2022-08-22T01:37:33.510Z,20.49
2022-08-22T01:40:24.408Z,20.40
2022-08-22T01:43:05.355Z,20.46
2022-08-22T01:45:52.402Z,20.46
2022-08-22T01:48:50.366Z,20.52
2022-08-22T01:51:30.177Z,20.52
2022-08-22T01:54:15.054Z,20.51
2022-08-22T01:56:49.402Z,20.50
2022-08-22T01:59:42.267Z,20.49
2022-08-22T02:02:24.711Z,20.48
2022-08-22T02:05:03.364Z,20.47
2022-08-22T02:08:18.204Z,20.47
2022-08-22T02:11:02.259Z,20.46
2022-08-22T02:13:52.672Z,20.39
2022-08-22T02:16:35.753Z,20.42
2022-08-22T02:19:17.449Z,20.41
2022-08-22T02:22:05.190Z,20.40
2022-08-22T02:24:47.170Z,20.38
2022-08-22T02:27:40.244Z,20.36
2022-08-22T02:30:23.765Z,20.36
2022-08-22T02:33:10.706Z,20.34
2022-08-22T02:36:05.636Z,20.30
2022-08-22T02:38:51.603Z,20.21
2022-08-22T02:42:00.600Z,20.20
2022-08-22T02:44:39.731Z,20.20
2022-08-22T02:48:04.287Z,20.16
2022-08-22T02:50:45.873Z,20.11
2022-08-22T02:53:40.431Z,20.12
2022-08-22T02:56:23.936Z,20.12
2022-08-22T02:59:26.539Z,20.13
2022-08-22T03:02:00.828Z,20.14
2022-08-22T03:04:37.634Z,20.11
2022-08-22T03:07:19.078Z,20.06
2022-08-22T03:10:03.649Z,20.13
2022-08-22T03:13:08.531Z,20.14
2022-08-22T03:15:56.033Z,20.08
2022-08-22T03:18:33.104Z,20.14
2022-08-22T03:21:36.170Z,20.14
2022-08-22T03:24:40.550Z,20.06
2022-08-22T03:27:52.581Z,20.12
2022-08-22T03:30:36.071Z,20.09
2022-08-22T03:33:28.415Z,20.13
2022-08-22T03:36:05.619Z,20.11
2022-08-22T03:38:38.138Z,20.05
2022-08-22T03:41:28.196Z,20.05
2022-08-22T03:44:40.758Z,20.07
2022-08-22T03:47:16.369Z,20.11
2022-08-22T03:50:24.303Z,20.15
2022-08-22T03:53:19.217Z,20.14
2022-08-22T03:56:09.099Z,20.17
2022-08-22T03:59:10.207Z,20.11
2022-08-22T04:01:43.192Z,20.16
2022-08-22T04:04:45.610Z,20.29
2022-08-22T04:07:46.876Z,20.36
2022-08-22T04:10:37.119Z,20.42
2022-08-22T04:13:26.111Z,20.47
2022-08-22T04:16:17.531Z,20.47
2022-08-22T04:18:56.030Z,20.55
2022-08-22T04:21:57.784Z,20.59
2022-08-22T04:24:52.368Z,20.65
2022-08-22T04:27:56.888Z,20.71
2022-08-22T04:30:44.645Z,20.76
2022-08-22T04:33:29.479Z,20.86
2022-08-22T04:36:32.638Z,20.89
2022-08-22T04:39:40.823Z,20.94
2022-08-22T04:42:40.839Z,20.97
2022-08-22T04:45:23.855Z,21.03
2022-08-22T04:48:08.192Z,21.08
2022-08-22T04:51:08.510Z,21.11
2022-08-22T04:53:57.048Z,21.15
2022-08-22T04:57:04.916Z,21.19
2022-08-22T04:59:39.090Z,21.21
2022-08-22T05:02:22.951Z,21.21
2022-08-22T05:05:04.895Z,21.35
2022-08-22T05:08:03.432Z,21.42
2022-08-22T05:10:42.435Z,21.45
2022-08-22T05:13:28.254Z,21.51
2022-08-22T05:16:07.559Z,21.55
2022-08-22T05:19:16.763Z,21.64
2022-08-22T05:21:53.358Z,21.75
2022-08-22T05:24:35.779Z,21.89
2022-08-22T05:27:31.292Z,22.00
2022-08-22T05:30:17.289Z,22.06
2022-08-22T05:33:07.510Z,22.15
2022-08-22T05:42:32.863Z,22.28
2022-08-22T05:45:12.054Z,22.29
2022-08-22T05:48:00.770Z,22.40
2022-08-22T05:50:51.063Z,22.49
2022-08-22T05:53:31.571Z,22.57
2022-08-22T05:56:18.358Z,22.62
2022-08-22T05:59:08.462Z,22.74
2022-08-22T06:01:52.429Z,22.83
2022-08-22T06:04:34.499Z,22.91
2022-08-22T06:07:13.637Z,23.00
2022-08-22T06:09:51.793Z,23.12
2022-08-22T06:12:46.170Z,23.25
2022-08-22T06:15:24.197Z,23.35
2022-08-22T06:18:15.445Z,23.48
2022-08-22T06:20:54.885Z,23.56
2022-08-22T06:23:39.008Z,23.67
2022-08-22T06:26:20.226Z,23.76
2022-08-22T06:29:01.631Z,23.80
2022-08-22T06:31:43.269Z,23.87
2022-08-22T06:34:26.146Z,24.02
2022-08-22T06:37:04.078Z,24.15
2022-08-22T06:39:44.445Z,24.25
2022-08-22T06:42:27.019Z,24.37
2022-08-22T06:45:05.341Z,24.48
2022-08-22T06:47:51.041Z,24.63
2022-08-22T06:50:35.209Z,24.73
2022-08-22T06:53:22.187Z,24.96
2022-08-22T06:56:06.063Z,25.19
2022-08-22T06:58:45.713Z,25.42
2022-08-22T07:01:26.456Z,25.54
2022-08-22T07:04:13.921Z,25.68
2022-08-22T07:06:51.022Z,25.78
2022-08-22T07:09:37.557Z,25.96
2022-08-22T07:12:20.103Z,26.23
2022-08-22T07:14:56.609Z,26.40
2022-08-22T07:17:36.767Z,26.57
2022-08-22T07:20:24.131Z,26.80
2022-08-22T07:23:08.355Z,27.03
2022-08-22T07:26:15.556Z,27.36
2022-08-22T07:29:14.518Z,27.65
2022-08-22T07:32:12.640Z,27.91
2022-08-22T07:35:16.395Z,28.10
2022-08-22T07:38:23.358Z,28.30
2022-08-22T07:41:32.318Z,28.32
2022-08-22T07:44:26.250Z,28.23
2022-08-22T07:47:07.655Z,28.14
2022-08-22T07:49:55.834Z,28.09
2022-08-22T07:52:38.567Z,28.07
2022-08-22T07:55:18.775Z,28.12
2022-08-22T07:58:04.300Z,28.31
2022-08-22T08:00:43.769Z,28.50
2022-08-22T08:03:17.745Z,28.69
2022-08-22T08:05:51.566Z,28.80
2022-08-22T08:08:42.262Z,28.86
2022-08-22T08:11:19.395Z,28.91
2022-08-22T08:14:13.570Z,28.94
2022-08-22T08:17:04.517Z,28.93
2022-08-22T08:19:42.797Z,28.94
2022-08-22T08:22:26.979Z,29.01
2022-08-22T08:25:02.890Z,29.19
2022-08-22T08:27:59.880Z,29.26
2022-08-22T08:30:51.352Z,29.36
2022-08-22T08:33:27.231Z,29.34
2022-08-22T08:36:18.174Z,29.37
2022-08-22T08:39:22.040Z,29.47
2022-08-22T08:42:15.297Z,29.57
2022-08-22T08:45:05.580Z,29.58
2022-08-22T08:47:40.678Z,29.62
2022-08-22T08:50:44.438Z,29.56
2022-08-22T08:54:00.031Z,29.48
2022-08-22T08:57:13.118Z,29.46
2022-08-22T08:59:55.703Z,29.52
2022-08-22T09:03:08.700Z,29.54
2022-08-22T09:05:50.752Z,29.56
2022-08-22T09:08:32.092Z,29.60
2022-08-22T09:11:52.261Z,29.64
2022-08-22T09:14:39.098Z,29.79
2022-08-22T09:17:41.809Z,29.92
2022-08-22T09:20:48.201Z,30.17
2022-08-22T09:23:56.667Z,30.35
2022-08-22T09:26:34.905Z,30.60
2022-08-22T09:29:55.204Z,30.76
2022-08-22T09:32:52.938Z,30.92
2022-08-22T09:35:51.339Z,31.05
2022-08-22T09:38:35.695Z,31.04
2022-08-22T09:41:43.417Z,31.16
2022-08-22T09:44:17.842Z,31.14
2022-08-22T09:47:10.479Z,31.05
2022-08-22T09:50:14.529Z,31.11
2022-08-22T09:53:12.469Z,31.08
2022-08-22T09:55:56.178Z,31.03
2022-08-22T09:58:58.273Z,30.91
2022-08-22T10:02:16.214Z,30.59
2022-08-22T10:05:00.115Z,30.50
2022-08-22T10:07:40.699Z,30.60
2022-08-22T10:10:36.305Z,30.60
2022-08-22T10:13:36.618Z,30.64
2022-08-22T10:16:18.490Z,30.61
2022-08-22T10:19:30.907Z,30.57
2022-08-22T10:22:34.191Z,30.67
2022-08-22T10:25:29.748Z,30.81
2022-08-22T10:28:04.936Z,31.10
2022-08-22T10:30:50.144Z,31.45
2022-08-22T10:33:31.793Z,31.64
2022-08-22T10:36:12.026Z,31.50
2022-08-22T10:38:56.244Z,31.43
2022-08-22T10:41:40.603Z,31.02
2022-08-22T10:44:22.242Z,30.95
2022-08-22T10:47:09.017Z,30.78
2022-08-22T10:50:11.538Z,30.63
2022-08-22T10:53:17.540Z,30.46
2022-08-22T10:56:08.119Z,30.45
2022-08-22T10:58:58.928Z,30.53
2022-08-22T11:01:41.981Z,30.59
2022-08-22T11:04:20.350Z,30.79
2022-08-22T11:07:36.063Z,30.91
2022-08-22T11:10:34.904Z,30.90
2022-08-22T11:13:32.465Z,30.99
2022-08-22T11:16:14.195Z,31.17
2022-08-22T11:19:02.562Z,31.31
2022-08-22T11:21:54.326Z,31.35
2022-08-22T11:24:55.832Z,31.34
2022-08-22T11:27:40.877Z,31.25
2022-08-22T11:30:22.699Z,31.06
2022-08-22T11:33:13.869Z,31.08
2022-08-22T11:36:06.141Z,31.03
2022-08-22T11:39:02.176Z,31.14
2022-08-22T11:42:04.896Z,31.27
2022-08-22T11:45:00.966Z,31.44
2022-08-22T11:47:44.346Z,31.54
2022-08-22T11:50:45.780Z,31.69
2022-08-22T11:53:31.064Z,31.84
2022-08-22T11:56:19.226Z,31.99
2022-08-22T11:59:06.188Z,32.11
2022-08-22T12:01:50.898Z,32.25
2022-08-22T12:04:46.825Z,32.31
2022-08-22T12:07:31.840Z,32.47
2022-08-22T12:10:18.256Z,32.61
2022-08-22T12:13:01.514Z,32.68
2022-08-22T12:15:47.111Z,32.68
2022-08-22T12:18:37.758Z,32.58
2022-08-22T12:21:52.898Z,32.44
2022-08-22T12:24:29.198Z,32.11
2022-08-22T12:27:28.532Z,31.91
2022-08-22T12:30:30.956Z,31.77
2022-08-22T12:33:06.532Z,31.65
2022-08-22T12:36:22.800Z,31.63
2022-08-22T12:39:25.009Z,31.65
2022-08-22T12:42:25.677Z,31.65
2022-08-22T12:45:18.956Z,31.66
2022-08-22T12:48:04.505Z,31.68
2022-08-22T12:50:52.919Z,31.64
2022-08-22T12:54:00.702Z,31.59
2022-08-22T12:56:51.662Z,31.52
2022-08-22T12:59:43.481Z,31.52
2022-08-22T13:02:40.644Z,31.51
2022-08-22T13:05:40.956Z,31.50
2022-08-22T13:08:26.471Z,31.50
2022-08-22T13:11:23.236Z,31.50
2022-08-22T13:14:03.154Z,31.47
2022-08-22T13:16:51.011Z,31.41
2022-08-22T13:19:34.660Z,31.41
2022-08-22T13:22:12.037Z,31.41
2022-08-22T13:25:00.827Z,31.39
2022-08-22T13:28:03.427Z,31.36
2022-08-22T13:30:43.978Z,31.30
2022-08-22T13:33:35.395Z,31.19
2022-08-22T13:36:11.559Z,31.07
2022-08-22T13:39:07.029Z,31.04
2022-08-22T13:41:50.303Z,30.98
2022-08-22T13:44:33.232Z,30.87
2022-08-22T13:47:20.409Z,30.74
2022-08-22T13:50:17.760Z,30.62
2022-08-22T13:53:00.903Z,30.43
2022-08-22T13:56:03.331Z,30.32
2022-08-22T13:58:55.979Z,30.21
2022-08-22T14:01:52.997Z,30.00
2022-08-22T14:04:34.713Z,29.86
2022-08-22T14:07:23.939Z,29.70
2022-08-22T14:10:14.642Z,29.62
2022-08-22T14:13:13.904Z,29.51
2022-08-22T14:15:47.161Z,29.47
2022-08-22T14:18:31.944Z,29.43
2022-08-22T14:21:40.653Z,29.33
2022-08-22T14:24:45.685Z,29.20
2022-08-22T14:27:35.952Z,29.09
2022-08-22T14:30:15.602Z,29.02
2022-08-22T14:33:00.300Z,28.93
2022-08-22T14:35:44.343Z,28.86
2022-08-22T14:38:31.563Z,28.81
2022-08-22T14:41:09.594Z,28.74
2022-08-22T14:44:05.792Z,28.64
2022-08-22T14:46:54.075Z,28.61
2022-08-22T14:49:38.224Z,28.54
2022-08-22T14:52:29.681Z,28.44
2022-08-22T14:55:15.172Z,28.25
2022-08-22T14:57:52.713Z,28.18
2022-08-22T15:00:50.145Z,28.06
2022-08-22T15:03:30.804Z,27.93
2022-08-22T15:06:13.868Z,27.72
2022-08-22T15:08:49.330Z,27.46
2022-08-22T15:11:32.032Z,27.41
2022-08-22T15:14:17.612Z,27.30
2022-08-22T15:16:58.074Z,27.17
2022-08-22T15:19:41.707Z,27.14
2022-08-22T15:22:29.748Z,27.12
2022-08-22T15:25:19.458Z,27.01
2022-08-22T15:28:20.500Z,26.91
2022-08-22T15:31:16.795Z,26.92
2022-08-22T15:33:50.720Z,26.90
2022-08-22T15:36:29.114Z,26.88
2022-08-22T15:39:34.135Z,26.82
2022-08-22T15:42:11.196Z,26.72
2022-08-22T15:44:56.804Z,26.66
2022-08-22T15:47:40.159Z,26.64
2022-08-22T15:50:48.963Z,26.62
2022-08-22T15:53:33.579Z,26.58
2022-08-22T15:56:16.195Z,26.48
2022-08-22T15:59:14.147Z,26.47
2022-08-22T16:02:23.824Z,26.42
2022-08-22T16:05:18.699Z,26.31
2022-08-22T16:08:08.468Z,26.25
2022-08-22T16:11:06.432Z,26.22
2022-08-22T16:13:44.998Z,26.18
2022-08-22T16:16:47.378Z,26.12
2022-08-22T16:19:23.021Z,26.05
2022-08-22T16:21:59.760Z,25.97
2022-08-22T16:24:34.041Z,25.85
2022-08-22T16:27:26.615Z,25.74
2022-08-22T16:30:09.524Z,25.62
2022-08-22T16:32:52.625Z,25.57
2022-08-22T16:36:00.355Z,25.45
2022-08-22T16:38:44.879Z,25.43
2022-08-22T16:41:41.259Z,25.40
2022-08-22T16:44:41.194Z,25.36
2022-08-22T16:47:15.868Z,25.28
2022-08-22T16:49:54.076Z,25.26
2022-08-22T16:52:29.464Z,25.18
2022-08-22T16:55:36.459Z,25.07
2022-08-22T16:58:56.138Z,24.97
2022-08-22T17:01:48.224Z,24.87
2022-08-22T17:04:38.554Z,24.84
2022-08-22T17:07:41.344Z,24.86
2022-08-22T17:10:41.327Z,24.80
2022-08-22T17:13:40.880Z,24.67
2022-08-22T17:16:53.930Z,24.58
2022-08-22T17:19:46.410Z,24.54
2022-08-22T17:22:28.972Z,24.48
2022-08-22T17:25:31.112Z,24.39
2022-08-22T17:28:38.778Z,24.32
2022-08-22T17:31:24.539Z,24.26
2022-08-22T17:34:34.929Z,24.18
2022-08-22T17:37:22.883Z,24.19
2022-08-22T17:40:29.542Z,24.19
2022-08-22T17:43:27.594Z,24.18
2022-08-22T17:46:13.241Z,24.15
2022-08-22T17:49:24.562Z,24.21
2022-08-22T17:52:41.544Z,24.24
2022-08-22T17:55:28.935Z,24.29
2022-08-22T17:58:37.463Z,24.34
2022-08-22T18:01:39.065Z,24.40
2022-08-22T18:04:26.323Z,24.42
2022-08-22T18:07:26.277Z,24.33
2022-08-22T18:10:24.789Z,24.16
2022-08-22T18:13:07.208Z,24.08
2022-08-22T18:16:06.288Z,23.98
2022-08-22T18:18:53.046Z,23.83
2022-08-22T18:21:49.227Z,23.70
2022-08-22T18:24:56.682Z,23.49
2022-08-22T18:27:47.348Z,23.14
2022-08-22T18:30:23.892Z,22.27
2022-08-22T18:33:02.289Z,21.74
2022-08-22T18:35:54.483Z,21.41
2022-08-22T18:38:37.388Z,21.06
2022-08-22T18:41:31.354Z,20.83
2022-08-22T18:44:13.888Z,20.63
2022-08-22T18:46:52.515Z,20.50
2022-08-22T18:49:29.400Z,20.53
2022-08-22T18:52:35.983Z,20.47
2022-08-22T18:55:23.741Z,20.44
2022-08-22T18:58:36.557Z,20.53
2022-08-22T19:01:44.654Z,20.60
2022-08-22T19:04:47.613Z,20.61
2022-08-22T19:07:34.603Z,20.72
2022-08-22T19:10:18.068Z,20.80
2022-08-22T19:13:10.907Z,20.82
2022-08-22T19:15:56.381Z,20.90
2022-08-22T19:18:55.953Z,20.92
2022-08-22T19:22:02.505Z,20.96
2022-08-22T19:25:00.171Z,20.90
2022-08-22T19:27:36.619Z,21.06
2022-08-22T19:30:30.659Z,21.04
2022-08-22T19:33:43.350Z,21.00
2022-08-22T19:36:35.528Z,21.02
2022-08-22T19:39:13.090Z,20.95
2022-08-22T19:41:58.571Z,20.69
2022-08-22T19:44:42.898Z,20.48
2022-08-22T19:47:36.194Z,20.44
2022-08-22T19:50:34.941Z,20.51
2022-08-22T19:53:40.371Z,20.58
2022-08-22T19:56:29.877Z,20.62
2022-08-22T19:59:28.350Z,20.61
2022-08-22T20:02:17.358Z,20.49
2022-08-22T20:04:55.541Z,20.34
2022-08-22T20:07:45.898Z,20.39
2022-08-22T20:10:25.252Z,20.53
2022-08-22T20:13:34.797Z,20.61
2022-08-22T20:16:21.828Z,20.62
2022-08-22T20:19:09.244Z,20.71
2022-08-22T20:22:00.881Z,20.80
2022-08-22T20:24:47.019Z,20.79
2022-08-22T20:27:37.060Z,20.86
2022-08-22T20:30:22.796Z,20.85
2022-08-22T20:33:02.745Z,20.83
2022-08-22T20:35:48.310Z,20.91
2022-08-22T20:38:55.710Z,20.91
2022-08-22T20:41:56.763Z,20.89
2022-08-22T20:44:45.091Z,20.86
2022-08-22T20:47:41.132Z,20.91
2022-08-22T20:50:25.000Z,20.86
2022-08-22T20:53:22.656Z,20.83
2022-08-22T20:56:03.930Z,20.80
2022-08-22T20:58:50.821Z,20.84
2022-08-22T21:01:26.465Z,20.76
2022-08-22T21:04:06.345Z,20.83
2022-08-22T21:06:41.215Z,20.85
2022-08-22T21:09:59.729Z,20.82
2022-08-22T21:12:34.611Z,20.90
2022-08-22T21:15:10.565Z,20.91
2022-08-22T21:17:44.209Z,20.84
2022-08-22T21:20:24.003Z,20.88
2022-08-22T21:23:03.518Z,20.82
2022-08-22T21:25:58.061Z,20.81
2022-08-22T21:29:01.239Z,20.89
2022-08-22T21:31:46.944Z,20.84
2022-08-22T21:34:27.826Z,20.80
2022-08-22T21:37:17.874Z,20.79
2022-08-22T21:40:03.494Z,20.78
2022-08-22T21:42:42.406Z,20.76
2022-08-22T21:45:33.632Z,20.72
2022-08-22T21:48:24.654Z,20.68
2022-08-22T21:51:18.587Z,20.60
2022-08-22T21:54:17.565Z,20.58
2022-08-22T21:56:51.519Z,20.44
2022-08-22T21:59:51.076Z,20.35
2022-08-22T22:02:37.615Z,20.33
2022-08-22T22:05:17.039Z,20.29
2022-08-22T22:07:52.582Z,20.33
2022-08-22T22:10:28.570Z,20.35
2022-08-22T22:13:03.924Z,20.29
2022-08-22T22:15:46.415Z,20.27
2022-08-22T22:18:23.755Z,20.30
2022-08-22T22:20:59.408Z,20.20
2022-08-22T22:23:34.595Z,20.15
2022-08-22T22:26:10.111Z,20.17
2022-08-22T22:28:49.498Z,20.25
2022-08-22T22:31:24.628Z,20.19
2022-08-22T22:34:00.059Z,20.24
2022-08-22T22:36:36.434Z,20.20
2022-08-22T22:39:11.706Z,20.20
2022-08-22T22:41:46.596Z,20.12
2022-08-22T22:44:21.737Z,20.08
2022-08-22T22:47:03.963Z,20.07
2022-08-22T22:49:38.979Z,19.98
2022-08-22T22:52:13.628Z,19.96
2022-08-22T22:54:48.688Z,20.00
2022-08-22T22:57:25.659Z,20.00
2022-08-22T23:00:01.152Z,20.00
2022-08-22T23:02:36.169Z,19.92
2022-08-22T23:05:13.141Z,19.90
2022-08-22T23:07:48.421Z,19.84
2022-08-22T23:10:23.203Z,19.81
2022-08-22T23:12:57.980Z,19.84
2022-08-22T23:15:32.851Z,19.78
2022-08-22T23:18:08.033Z,19.68
2022-08-22T23:20:43.377Z,19.71
2022-08-22T23:23:19.122Z,19.68
2022-08-22T23:26:00.369Z,19.70
2022-08-22T23:28:35.163Z,19.63
2022-08-22T23:31:21.705Z,19.61
2022-08-22T23:33:56.133Z,19.65
2022-08-22T23:36:30.981Z,19.56
2022-08-22T23:39:06.406Z,19.59
2022-08-22T23:41:42.435Z,19.65
2022-08-22T23:44:19.184Z,19.62
2022-08-22T23:46:54.376Z,19.49
2022-08-22T23:49:29.192Z,19.54
2022-08-22T23:52:04.011Z,19.60
2022-08-22T23:54:39.033Z,19.60
2022-08-22T23:57:15.992Z,19.60
2022-08-22T23:59:57.945Z,19.59
